sensor_id;sensor_type;location;lat;lon;timestamp;pressure;altitude;pressure_sealevel;temperature;humidity
64228;BME280;50546;49.146;10.616;2022-10-30T00:02:04;96788.06;;;16.30;75.92
64228;BME280;50546;49.146;10.616;2022-10-30T00:04:30;96785.38;;;16.18;76.12
64228;BME280;50546;49.146;10.616;2022-10-30T00:06:55;96778.78;;;16.19;76.39
64228;BME280;50546;49.146;10.616;2022-10-30T00:09:20;96777.91;;;16.27;76.34
64228;BME280;50546;49.146;10.616;2022-10-30T00:11:46;96775.84;;;16.24;76.11
64228;BME280;50546;49.146;10.616;2022-10-30T00:14:11;96778.44;;;16.08;77.06
64228;BME280;50546;49.146;10.616;2022-10-30T00:16:38;96774.94;;;16.07;76.74
64228;BME280;50546;49.146;10.616;2022-10-30T00:19:03;96784.91;;;16.16;76.64
64228;BME280;50546;49.146;10.616;2022-10-30T00:21:28;96776.50;;;16.08;76.85
64228;BME280;50546;49.146;10.616;2022-10-30T00:23:54;96776.31;;;16.01;76.58
64228;BME280;50546;49.146;10.616;2022-10-30T00:26:21;96768.59;;;16.03;76.88
64228;BME280;50546;49.146;10.616;2022-10-30T00:28:51;96772.00;;;16.00;76.29
64228;BME280;50546;49.146;10.616;2022-10-30T00:31:17;96772.91;;;15.92;77.00
64228;BME280;50546;49.146;10.616;2022-10-30T00:33:42;96774.25;;;15.86;77.34
64228;BME280;50546;49.146;10.616;2022-10-30T00:36:07;96772.31;;;15.86;77.39
64228;BME280;50546;49.146;10.616;2022-10-30T00:38:33;96775.50;;;15.76;77.61
64228;BME280;50546;49.146;10.616;2022-10-30T00:40:58;96780.34;;;15.71;78.07
64228;BME280;50546;49.146;10.616;2022-10-30T00:43:44;96766.25;;;15.56;78.65
64228;BME280;50546;49.146;10.616;2022-10-30T00:46:32;96767.34;;;15.43;78.35
64228;BME280;50546;49.146;10.616;2022-10-30T00:49:03;96774.38;;;15.44;78.38
64228;BME280;50546;49.146;10.616;2022-10-30T00:51:31;96767.00;;;15.32;78.68
64228;BME280;50546;49.146;10.616;2022-10-30T00:53:58;96773.56;;;15.10;79.27
64228;BME280;50546;49.146;10.616;2022-10-30T00:56:26;96765.06;;;15.00;80.45
64228;BME280;50546;49.146;10.616;2022-10-30T00:58:56;96775.81;;;14.96;80.00
64228;BME280;50546;49.146;10.616;2022-10-30T01:01:25;96774.06;;;14.91;79.56
64228;BME280;50546;49.146;10.616;2022-10-30T01:03:55;96772.75;;;14.98;79.42
64228;BME280;50546;49.146;10.616;2022-10-30T01:06:22;96778.97;;;14.98;78.94
64228;BME280;50546;49.146;10.616;2022-10-30T01:08:48;96772.50;;;14.90;79.54
64228;BME280;50546;49.146;10.616;2022-10-30T01:11:14;96770.44;;;14.87;79.50
64228;BME280;50546;49.146;10.616;2022-10-30T01:13:41;96767.06;;;14.69;80.79
64228;BME280;50546;49.146;10.616;2022-10-30T01:18:53;96763.63;;;14.60;80.72
64228;BME280;50546;49.146;10.616;2022-10-30T01:21:46;96767.44;;;14.59;80.08
64228;BME280;50546;49.146;10.616;2022-10-30T01:26:52;96752.31;;;14.58;81.01
64228;BME280;50546;49.146;10.616;2022-10-30T01:37:19;96753.00;;;14.47;82.69
64228;BME280;50546;49.146;10.616;2022-10-30T01:39:46;96747.31;;;14.39;81.73
64228;BME280;50546;49.146;10.616;2022-10-30T01:42:52;96744.00;;;14.34;81.72
64228;BME280;50546;49.146;10.616;2022-10-30T01:55:01;96738.84;;;14.41;81.19
64228;BME280;50546;49.146;10.616;2022-10-30T01:59:46;96753.53;;;14.40;80.95
64228;BME280;50546;49.146;10.616;2022-10-30T02:02:15;96753.81;;;14.47;80.70
64228;BME280;50546;49.146;10.616;2022-10-30T02:04:41;96755.97;;;14.33;80.68
64228;BME280;50546;49.146;10.616;2022-10-30T02:07:07;96758.03;;;14.36;81.03
64228;BME280;50546;49.146;10.616;2022-10-30T02:09:32;96751.13;;;14.17;82.47
64228;BME280;50546;49.146;10.616;2022-10-30T02:11:58;96748.78;;;14.07;83.59
64228;BME280;50546;49.146;10.616;2022-10-30T02:14:30;96746.34;;;14.14;83.77
64228;BME280;50546;49.146;10.616;2022-10-30T02:16:59;96739.88;;;14.07;83.35
64228;BME280;50546;49.146;10.616;2022-10-30T02:19:26;96736.66;;;14.13;82.80
64228;BME280;50546;49.146;10.616;2022-10-30T02:21:51;96734.88;;;14.17;82.61
64228;BME280;50546;49.146;10.616;2022-10-30T02:24:17;96736.06;;;14.29;81.53
64228;BME280;50546;49.146;10.616;2022-10-30T02:26:42;96737.00;;;14.33;82.10
64228;BME280;50546;49.146;10.616;2022-10-30T02:29:07;96736.63;;;14.43;81.09
64228;BME280;50546;49.146;10.616;2022-10-30T02:31:33;96738.19;;;14.44;81.00
64228;BME280;50546;49.146;10.616;2022-10-30T02:33:58;96736.75;;;14.47;80.40
64228;BME280;50546;49.146;10.616;2022-10-30T02:36:23;96735.97;;;14.46;81.11
64228;BME280;50546;49.146;10.616;2022-10-30T02:38:49;96734.81;;;14.47;81.87
64228;BME280;50546;49.146;10.616;2022-10-30T02:41:14;96737.06;;;14.45;81.19
64228;BME280;50546;49.146;10.616;2022-10-30T02:43:39;96725.75;;;14.43;82.11
64228;BME280;50546;49.146;10.616;2022-10-30T02:46:05;96729.75;;;14.45;81.54
64228;BME280;50546;49.146;10.616;2022-10-30T02:48:30;96730.72;;;14.41;82.09
64228;BME280;50546;49.146;10.616;2022-10-30T02:51:00;96732.72;;;14.32;82.11
64228;BME280;50546;49.146;10.616;2022-10-30T02:53:25;96735.41;;;14.32;82.87
64228;BME280;50546;49.146;10.616;2022-10-30T02:55:51;96735.56;;;14.35;81.63
64228;BME280;50546;49.146;10.616;2022-10-30T02:58:16;96742.41;;;14.33;82.78
64228;BME280;50546;49.146;10.616;2022-10-30T03:00:41;96727.59;;;14.30;83.31
64228;BME280;50546;49.146;10.616;2022-10-30T03:03:06;96730.56;;;14.37;82.46
64228;BME280;50546;49.146;10.616;2022-10-30T03:05:32;96726.94;;;14.33;82.50
64228;BME280;50546;49.146;10.616;2022-10-30T03:07:57;96718.34;;;14.10;83.96
64228;BME280;50546;49.146;10.616;2022-10-30T03:10:22;96716.91;;;14.13;83.51
64228;BME280;50546;49.146;10.616;2022-10-30T03:12:47;96719.63;;;14.04;82.92
64228;BME280;50546;49.146;10.616;2022-10-30T03:15:13;96721.41;;;14.00;83.08
64228;BME280;50546;49.146;10.616;2022-10-30T03:17:38;96720.28;;;14.01;83.77
64228;BME280;50546;49.146;10.616;2022-10-30T03:20:04;96722.34;;;14.04;82.51
64228;BME280;50546;49.146;10.616;2022-10-30T03:22:29;96719.03;;;13.99;82.06
64228;BME280;50546;49.146;10.616;2022-10-30T03:24:54;96719.84;;;13.99;81.90
64228;BME280;50546;49.146;10.616;2022-10-30T03:27:20;96718.06;;;14.03;81.82
64228;BME280;50546;49.146;10.616;2022-10-30T03:29:45;96716.56;;;13.85;82.34
64228;BME280;50546;49.146;10.616;2022-10-30T03:32:10;96716.13;;;13.74;83.54
64228;BME280;50546;49.146;10.616;2022-10-30T03:34:36;96705.81;;;13.67;84.43
64228;BME280;50546;49.146;10.616;2022-10-30T03:37:01;96711.41;;;13.62;84.78
64228;BME280;50546;49.146;10.616;2022-10-30T03:39:26;96704.88;;;13.63;84.86
64228;BME280;50546;49.146;10.616;2022-10-30T03:41:52;96711.88;;;13.64;84.44
64228;BME280;50546;49.146;10.616;2022-10-30T03:44:17;96707.38;;;13.68;84.92
64228;BME280;50546;49.146;10.616;2022-10-30T03:46:42;96711.31;;;13.80;85.64
64228;BME280;50546;49.146;10.616;2022-10-30T03:49:07;96706.09;;;13.75;84.48
64228;BME280;50546;49.146;10.616;2022-10-30T03:51:33;96705.66;;;13.64;83.00
64228;BME280;50546;49.146;10.616;2022-10-30T03:53:58;96712.09;;;13.51;83.12
64228;BME280;50546;49.146;10.616;2022-10-30T03:56:23;96708.19;;;13.31;82.00
64228;BME280;50546;49.146;10.616;2022-10-30T03:58:49;96705.34;;;13.18;82.05
64228;BME280;50546;49.146;10.616;2022-10-30T04:01:14;96705.50;;;13.13;82.38
64228;BME280;50546;49.146;10.616;2022-10-30T04:03:39;96704.38;;;13.14;82.04
64228;BME280;50546;49.146;10.616;2022-10-30T04:06:04;96707.59;;;12.99;82.15
64228;BME280;50546;49.146;10.616;2022-10-30T04:08:31;96711.28;;;12.94;82.30
64228;BME280;50546;49.146;10.616;2022-10-30T04:10:56;96711.09;;;12.99;82.58
64228;BME280;50546;49.146;10.616;2022-10-30T04:13:21;96713.63;;;12.96;82.95
64228;BME280;50546;49.146;10.616;2022-10-30T04:15:47;96715.88;;;12.94;83.59
64228;BME280;50546;49.146;10.616;2022-10-30T04:18:16;96709.69;;;12.93;83.66
64228;BME280;50546;49.146;10.616;2022-10-30T04:20:43;96710.81;;;12.84;83.81
64228;BME280;50546;49.146;10.616;2022-10-30T04:23:15;96715.25;;;12.80;84.20
64228;BME280;50546;49.146;10.616;2022-10-30T04:25:41;96713.38;;;12.71;83.99
64228;BME280;50546;49.146;10.616;2022-10-30T04:28:07;96715.91;;;12.76;84.08
64228;BME280;50546;49.146;10.616;2022-10-30T04:30:32;96717.97;;;12.80;82.92
64228;BME280;50546;49.146;10.616;2022-10-30T04:33:02;96719.25;;;12.73;83.27
64228;BME280;50546;49.146;10.616;2022-10-30T04:35:30;96715.44;;;12.66;83.87
64228;BME280;50546;49.146;10.616;2022-10-30T04:38:04;96719.41;;;12.68;83.93
64228;BME280;50546;49.146;10.616;2022-10-30T04:40:32;96713.84;;;12.65;85.61
64228;BME280;50546;49.146;10.616;2022-10-30T04:42:58;96722.75;;;12.65;85.29
64228;BME280;50546;49.146;10.616;2022-10-30T04:45:24;96717.84;;;12.67;86.64
64228;BME280;50546;49.146;10.616;2022-10-30T04:47:49;96715.13;;;12.50;87.25
64228;BME280;50546;49.146;10.616;2022-10-30T04:50:15;96719.72;;;12.75;90.62
64228;BME280;50546;49.146;10.616;2022-10-30T04:52:41;96717.63;;;12.81;88.36
64228;BME280;50546;49.146;10.616;2022-10-30T04:55:08;96723.03;;;12.98;88.54
64228;BME280;50546;49.146;10.616;2022-10-30T04:57:34;96718.41;;;12.99;85.62
64228;BME280;50546;49.146;10.616;2022-10-30T05:00:02;96726.06;;;12.97;84.61
64228;BME280;50546;49.146;10.616;2022-10-30T05:02:28;96723.06;;;12.90;83.45
64228;BME280;50546;49.146;10.616;2022-10-30T05:04:53;96719.72;;;12.84;83.97
64228;BME280;50546;49.146;10.616;2022-10-30T05:07:19;96726.25;;;12.74;84.68
64228;BME280;50546;49.146;10.616;2022-10-30T05:09:44;96721.31;;;12.59;84.81
64228;BME280;50546;49.146;10.616;2022-10-30T05:12:09;96720.84;;;12.57;85.40
64228;BME280;50546;49.146;10.616;2022-10-30T05:14:35;96728.31;;;12.43;85.22
64228;BME280;50546;49.146;10.616;2022-10-30T05:17:00;96723.06;;;12.46;85.11
64228;BME280;50546;49.146;10.616;2022-10-30T05:19:26;96728.16;;;12.48;85.20
64228;BME280;50546;49.146;10.616;2022-10-30T05:21:51;96715.44;;;12.66;84.73
64228;BME280;50546;49.146;10.616;2022-10-30T05:24:17;96714.63;;;12.65;84.41
64228;BME280;50546;49.146;10.616;2022-10-30T05:26:42;96713.38;;;12.71;84.00
64228;BME280;50546;49.146;10.616;2022-10-30T05:29:07;96708.75;;;12.63;84.30
64228;BME280;50546;49.146;10.616;2022-10-30T05:31:33;96707.16;;;12.62;84.30
64228;BME280;50546;49.146;10.616;2022-10-30T05:33:58;96707.31;;;12.66;85.86
64228;BME280;50546;49.146;10.616;2022-10-30T05:36:23;96707.47;;;12.69;87.21
64228;BME280;50546;49.146;10.616;2022-10-30T05:38:49;96715.91;;;12.76;87.50
64228;BME280;50546;49.146;10.616;2022-10-30T05:41:14;96716.03;;;12.89;87.20
64228;BME280;50546;49.146;10.616;2022-10-30T05:43:39;96715.09;;;12.93;87.40
64228;BME280;50546;49.146;10.616;2022-10-30T05:46:04;96712.06;;;12.95;87.42
64228;BME280;50546;49.146;10.616;2022-10-30T05:48:30;96717.31;;;12.91;88.00
64228;BME280;50546;49.146;10.616;2022-10-30T05:50:55;96712.53;;;12.88;86.20
64228;BME280;50546;49.146;10.616;2022-10-30T05:53:21;96718.09;;;12.92;86.64
64228;BME280;50546;49.146;10.616;2022-10-30T05:55:46;96716.03;;;12.89;85.79
64228;BME280;50546;49.146;10.616;2022-10-30T05:58:12;96723.66;;;12.95;86.83
64228;BME280;50546;49.146;10.616;2022-10-30T06:00:37;96723.19;;;12.85;85.45
64228;BME280;50546;49.146;10.616;2022-10-30T06:03:06;96722.59;;;12.79;84.80
64228;BME280;50546;49.146;10.616;2022-10-30T06:05:34;96723.38;;;12.80;85.14
64228;BME280;50546;49.146;10.616;2022-10-30T06:07:59;96722.72;;;12.91;84.66
64228;BME280;50546;49.146;10.616;2022-10-30T06:10:25;96727.19;;;12.87;84.80
64228;BME280;50546;49.146;10.616;2022-10-30T06:12:54;96719.22;;;12.91;84.80
64228;BME280;50546;49.146;10.616;2022-10-30T06:15:21;96715.88;;;12.94;85.63
64228;BME280;50546;49.146;10.616;2022-10-30T06:17:46;96720.81;;;13.00;86.06
64228;BME280;50546;49.146;10.616;2022-10-30T06:20:12;96717.75;;;13.11;85.19
64228;BME280;50546;49.146;10.616;2022-10-30T06:22:37;96716.16;;;13.18;85.34
64228;BME280;50546;49.146;10.616;2022-10-30T06:25:03;96715.03;;;13.11;84.88
64228;BME280;50546;49.146;10.616;2022-10-30T06:27:28;96720.00;;;13.09;84.52
64228;BME280;50546;49.146;10.616;2022-10-30T06:29:53;96731.94;;;13.08;84.17
64228;BME280;50546;49.146;10.616;2022-10-30T06:32:20;96727.00;;;12.92;84.25
64228;BME280;50546;49.146;10.616;2022-10-30T06:34:45;96732.44;;;12.84;83.94
64228;BME280;50546;49.146;10.616;2022-10-30T06:37:11;96736.72;;;12.85;83.91
64228;BME280;50546;49.146;10.616;2022-10-30T06:39:36;96738.94;;;12.91;84.16
64228;BME280;50546;49.146;10.616;2022-10-30T06:42:01;96744.78;;;13.11;82.82
64228;BME280;50546;49.146;10.616;2022-10-30T06:44:27;96740.34;;;13.23;83.17
64228;BME280;50546;49.146;10.616;2022-10-30T06:46:52;96743.38;;;13.22;83.33
64228;BME280;50546;49.146;10.616;2022-10-30T06:49:18;96738.44;;;13.24;84.09
64228;BME280;50546;49.146;10.616;2022-10-30T06:51:43;96743.50;;;13.34;84.15
64228;BME280;50546;49.146;10.616;2022-10-30T06:54:09;96731.22;;;13.45;83.40
64228;BME280;50546;49.146;10.616;2022-10-30T06:56:34;96731.88;;;13.42;83.40
64228;BME280;50546;49.146;10.616;2022-10-30T06:58:59;96735.66;;;13.50;83.55
64228;BME280;50546;49.146;10.616;2022-10-30T07:01:25;96747.41;;;13.54;83.09
64228;BME280;50546;49.146;10.616;2022-10-30T07:03:50;96749.53;;;13.48;83.93
64228;BME280;50546;49.146;10.616;2022-10-30T07:06:15;96747.78;;;13.44;83.52
64228;BME280;50546;49.146;10.616;2022-10-30T07:08:40;96766.84;;;13.56;82.69
64228;BME280;50546;49.146;10.616;2022-10-30T07:11:06;96755.47;;;13.71;82.10
64228;BME280;50546;49.146;10.616;2022-10-30T07:13:31;96754.84;;;13.75;81.51
64228;BME280;50546;49.146;10.616;2022-10-30T07:15:59;96756.63;;;14.00;81.01
64228;BME280;50546;49.146;10.616;2022-10-30T07:18:24;96754.84;;;14.04;80.70
64228;BME280;50546;49.146;10.616;2022-10-30T07:20:54;96754.81;;;14.13;80.26
64228;BME280;50546;49.146;10.616;2022-10-30T07:23:20;96754.16;;;14.16;79.65
64228;BME280;50546;49.146;10.616;2022-10-30T07:25:45;96761.91;;;14.26;79.61
64228;BME280;50546;49.146;10.616;2022-10-30T07:28:11;96761.72;;;14.31;80.58
64228;BME280;50546;49.146;10.616;2022-10-30T07:30:36;96764.88;;;14.33;79.55
64228;BME280;50546;49.146;10.616;2022-10-30T07:33:04;96763.94;;;14.38;79.10
64228;BME280;50546;49.146;10.616;2022-10-30T07:35:31;96769.44;;;14.50;79.67
64228;BME280;50546;49.146;10.616;2022-10-30T07:38:04;96761.94;;;14.47;79.67
64228;BME280;50546;49.146;10.616;2022-10-30T07:40:31;96759.00;;;14.61;79.66
64228;BME280;50546;49.146;10.616;2022-10-30T07:42:58;96753.97;;;14.72;79.50
64228;BME280;50546;49.146;10.616;2022-10-30T07:45:24;96757.66;;;14.88;79.80
64228;BME280;50546;49.146;10.616;2022-10-30T07:47:50;96757.00;;;14.91;78.22
64228;BME280;50546;49.146;10.616;2022-10-30T07:50:16;96754.09;;;14.96;78.51
64228;BME280;50546;49.146;10.616;2022-10-30T07:52:41;96763.41;;;15.07;78.23
64228;BME280;50546;49.146;10.616;2022-10-30T07:55:07;96768.53;;;15.21;77.91
64228;BME280;50546;49.146;10.616;2022-10-30T07:57:36;96766.00;;;15.37;77.77
64228;BME280;50546;49.146;10.616;2022-10-30T08:00:06;96766.25;;;15.56;77.88
64228;BME280;50546;49.146;10.616;2022-10-30T08:02:32;96762.34;;;15.66;76.99
64228;BME280;50546;49.146;10.616;2022-10-30T08:04:57;96768.22;;;15.68;76.83
64228;BME280;50546;49.146;10.616;2022-10-30T08:07:23;96760.81;;;15.56;77.05
64228;BME280;50546;49.146;10.616;2022-10-30T08:09:48;96762.03;;;15.80;77.75
64228;BME280;50546;49.146;10.616;2022-10-30T08:12:14;96765.97;;;15.70;77.38
64228;BME280;50546;49.146;10.616;2022-10-30T08:14:39;96764.50;;;15.85;77.26
64228;BME280;50546;49.146;10.616;2022-10-30T08:17:05;96755.00;;;15.91;77.94
64228;BME280;50546;49.146;10.616;2022-10-30T08:19:31;96759.66;;;15.91;78.06
64228;BME280;50546;49.146;10.616;2022-10-30T08:21:57;96756.34;;;15.97;78.26
64228;BME280;50546;49.146;10.616;2022-10-30T08:24:22;96763.84;;;16.00;78.03
64228;BME280;50546;49.146;10.616;2022-10-30T08:26:50;96762.25;;;16.11;78.86
64228;BME280;50546;49.146;10.616;2022-10-30T08:29:16;96767.13;;;16.30;78.09
64228;BME280;50546;49.146;10.616;2022-10-30T08:31:41;96756.13;;;16.39;77.63
64228;BME280;50546;49.146;10.616;2022-10-30T08:34:07;96761.78;;;16.46;77.97
64228;BME280;50546;49.146;10.616;2022-10-30T08:36:33;96759.38;;;16.57;77.30
64228;BME280;50546;49.146;10.616;2022-10-30T08:38:59;96760.72;;;16.75;76.75
64228;BME280;50546;49.146;10.616;2022-10-30T08:41:24;96765.81;;;16.65;77.62
64228;BME280;50546;49.146;10.616;2022-10-30T08:43:49;96765.59;;;16.82;77.18
64228;BME280;50546;49.146;10.616;2022-10-30T08:46:14;96763.28;;;16.84;77.41
64228;BME280;50546;49.146;10.616;2022-10-30T08:48:40;96760.44;;;16.93;77.26
64228;BME280;50546;49.146;10.616;2022-10-30T08:51:05;96757.56;;;17.01;76.98
64228;BME280;50546;49.146;10.616;2022-10-30T08:53:31;96756.38;;;17.15;76.99
64228;BME280;50546;49.146;10.616;2022-10-30T08:55:56;96759.22;;;17.34;76.32
64228;BME280;50546;49.146;10.616;2022-10-30T08:58:21;96758.47;;;17.49;75.39
64228;BME280;50546;49.146;10.616;2022-10-30T09:00:47;96751.13;;;17.82;74.84
64228;BME280;50546;49.146;10.616;2022-10-30T09:03:12;96750.16;;;18.06;74.92
64228;BME280;50546;49.146;10.616;2022-10-30T09:05:37;96741.63;;;18.23;74.18
64228;BME280;50546;49.146;10.616;2022-10-30T09:08:03;96746.13;;;18.50;73.88
64228;BME280;50546;49.146;10.616;2022-10-30T09:10:28;96748.06;;;18.50;73.15
64228;BME280;50546;49.146;10.616;2022-10-30T09:12:55;96751.88;;;18.65;73.54
64228;BME280;50546;49.146;10.616;2022-10-30T09:15:20;96750.28;;;18.80;72.96
64228;BME280;50546;49.146;10.616;2022-10-30T09:17:46;96753.50;;;19.05;72.96
64228;BME280;50546;49.146;10.616;2022-10-30T09:20:11;96747.31;;;19.27;72.08
64228;BME280;50546;49.146;10.616;2022-10-30T09:22:40;96736.16;;;19.36;71.49
64228;BME280;50546;49.146;10.616;2022-10-30T09:25:06;96741.91;;;19.50;71.10
64228;BME280;50546;49.146;10.616;2022-10-30T09:27:36;96731.41;;;19.75;71.23
64228;BME280;50546;49.146;10.616;2022-10-30T09:30:02;96749.22;;;19.88;70.85
64228;BME280;50546;49.146;10.616;2022-10-30T09:32:27;96739.97;;;19.96;70.20
64228;BME280;50546;49.146;10.616;2022-10-30T09:34:52;96735.13;;;19.86;70.63
64228;BME280;50546;49.146;10.616;2022-10-30T09:37:18;96737.31;;;19.77;70.85
64228;BME280;50546;49.146;10.616;2022-10-30T09:39:43;96732.59;;;20.01;71.55
64228;BME280;50546;49.146;10.616;2022-10-30T09:50:25;96742.31;;;20.21;70.08
64228;BME280;50546;49.146;10.616;2022-10-30T10:01:36;96753.34;;;20.28;71.00
64228;BME280;50546;49.146;10.616;2022-10-30T10:04:38;96743.72;;;20.38;70.54
64228;BME280;50546;49.146;10.616;2022-10-30T10:09:54;96742.75;;;20.80;70.69
64228;BME280;50546;49.146;10.616;2022-10-30T10:12:27;96739.00;;;20.91;70.02
64228;BME280;50546;49.146;10.616;2022-10-30T10:14:55;96736.34;;;20.99;68.85
64228;BME280;50546;49.146;10.616;2022-10-30T10:17:38;96731.22;;;20.63;69.30
64228;BME280;50546;49.146;10.616;2022-10-30T10:20:10;96730.28;;;20.82;70.24
64228;BME280;50546;49.146;10.616;2022-10-30T10:22:47;96732.53;;;21.07;68.89
64228;BME280;50546;49.146;10.616;2022-10-30T10:25:17;96724.91;;;21.27;68.95
64228;BME280;50546;49.146;10.616;2022-10-30T10:30:21;96724.28;;;21.81;67.57
64228;BME280;50546;49.146;10.616;2022-10-30T10:33:06;96732.38;;;22.08;66.39
64228;BME280;50546;49.146;10.616;2022-10-30T10:35:36;96725.03;;;22.19;65.37
64228;BME280;50546;49.146;10.616;2022-10-30T10:46:23;96724.56;;;22.76;64.78
64228;BME280;50546;49.146;10.616;2022-10-30T10:49:02;96712.91;;;23.00;63.88
64228;BME280;50546;49.146;10.616;2022-10-30T10:51:38;96715.25;;;23.02;62.75
64228;BME280;50546;49.146;10.616;2022-10-30T10:54:11;96723.88;;;22.93;62.78
64228;BME280;50546;49.146;10.616;2022-10-30T10:56:42;96721.84;;;22.87;63.20
64228;BME280;50546;49.146;10.616;2022-10-30T10:59:16;96719.56;;;22.96;63.23
64228;BME280;50546;49.146;10.616;2022-10-30T11:02:01;96712.22;;;23.25;63.02
64228;BME280;50546;49.146;10.616;2022-10-30T11:04:38;96718.13;;;23.38;62.75
64228;BME280;50546;49.146;10.616;2022-10-30T11:07:25;96705.97;;;23.57;62.77
64228;BME280;50546;49.146;10.616;2022-10-30T11:09:55;96698.16;;;23.76;62.50
64228;BME280;50546;49.146;10.616;2022-10-30T11:12:33;96694.63;;;23.87;61.90
64228;BME280;50546;49.146;10.616;2022-10-30T11:15:08;96698.94;;;23.70;63.25
64228;BME280;50546;49.146;10.616;2022-10-30T11:17:50;96700.13;;;24.08;63.37
64228;BME280;50546;49.146;10.616;2022-10-30T11:20:22;96695.38;;;24.34;62.19
64228;BME280;50546;49.146;10.616;2022-10-30T11:22:52;96687.50;;;24.39;60.77
64228;BME280;50546;49.146;10.616;2022-10-30T11:25:20;96696.91;;;24.63;60.08
64228;BME280;50546;49.146;10.616;2022-10-30T11:27:47;96690.56;;;24.73;59.85
64228;BME280;50546;49.146;10.616;2022-10-30T11:30:19;96688.97;;;24.76;59.33
64228;BME280;50546;49.146;10.616;2022-10-30T11:32:45;96692.91;;;24.75;58.77
64228;BME280;50546;49.146;10.616;2022-10-30T11:35:13;96685.81;;;24.81;58.74
64228;BME280;50546;49.146;10.616;2022-10-30T11:37:40;96683.78;;;24.96;58.09
64228;BME280;50546;49.146;10.616;2022-10-30T11:42:34;96684.94;;;25.02;58.02
64228;BME280;50546;49.146;10.616;2022-10-30T11:45:01;96679.47;;;24.95;56.90
64228;BME280;50546;49.146;10.616;2022-10-30T11:47:37;96677.78;;;25.15;54.63
64228;BME280;50546;49.146;10.616;2022-10-30T11:50:15;96679.06;;;24.93;55.93
64228;BME280;50546;49.146;10.616;2022-10-30T11:52:43;96684.81;;;25.24;54.55
64228;BME280;50546;49.146;10.616;2022-10-30T11:55:28;96684.66;;;25.52;49.14
64228;BME280;50546;49.146;10.616;2022-10-30T11:57:57;96673.56;;;26.11;48.54
64228;BME280;50546;49.146;10.616;2022-10-30T12:00:27;96680.91;;;26.67;45.26
64228;BME280;50546;49.146;10.616;2022-10-30T12:02:55;96676.66;;;27.77;44.30
64228;BME280;50546;49.146;10.616;2022-10-30T12:07:49;96670.72;;;29.09;41.21
64228;BME280;50546;49.146;10.616;2022-10-30T12:10:29;96664.16;;;29.52;40.88
64228;BME280;50546;49.146;10.616;2022-10-30T12:12:55;96663.22;;;29.42;41.23
64228;BME280;50546;49.146;10.616;2022-10-30T12:15:24;96668.34;;;29.44;41.46
64228;BME280;50546;49.146;10.616;2022-10-30T12:17:57;96669.78;;;30.01;39.79
64228;BME280;50546;49.146;10.616;2022-10-30T12:20:23;96658.06;;;30.55;39.97
64228;BME280;50546;49.146;10.616;2022-10-30T12:22:49;96656.63;;;30.92;39.51
64228;BME280;50546;49.146;10.616;2022-10-30T12:25:34;96660.22;;;31.06;38.74
64228;BME280;50546;49.146;10.616;2022-10-30T12:28:12;96656.16;;;31.49;38.43
64228;BME280;50546;49.146;10.616;2022-10-30T12:35:55;96657.38;;;33.21;35.88
64228;BME280;50546;49.146;10.616;2022-10-30T12:38:25;96645.28;;;34.05;34.76
64228;BME280;50546;49.146;10.616;2022-10-30T12:43:38;96650.81;;;35.34;31.88
64228;BME280;50546;49.146;10.616;2022-10-30T12:48:47;96643.78;;;36.05;30.16
64228;BME280;50546;49.146;10.616;2022-10-30T12:51:27;96644.88;;;36.07;29.69
64228;BME280;50546;49.146;10.616;2022-10-30T12:54:04;96638.69;;;37.10;28.54
64228;BME280;50546;49.146;10.616;2022-10-30T12:56:37;96639.03;;;38.18;26.81
64228;BME280;50546;49.146;10.616;2022-10-30T12:59:25;96644.59;;;38.33;27.57
64228;BME280;50546;49.146;10.616;2022-10-30T13:02:07;96638.47;;;38.55;26.43
64228;BME280;50546;49.146;10.616;2022-10-30T13:04:39;96631.97;;;37.88;28.11
64228;BME280;50546;49.146;10.616;2022-10-30T13:09:55;96635.44;;;38.59;25.37
64228;BME280;50546;49.146;10.616;2022-10-30T13:12:30;96641.38;;;39.13;25.40
64228;BME280;50546;49.146;10.616;2022-10-30T13:17:40;96633.72;;;37.85;25.56
64228;BME280;50546;49.146;10.616;2022-10-30T13:20:11;96625.72;;;36.98;27.56
64228;BME280;50546;49.146;10.616;2022-10-30T13:22:50;96630.41;;;36.77;26.43
64228;BME280;50546;49.146;10.616;2022-10-30T13:25:36;96631.09;;;35.19;26.77
64228;BME280;50546;49.146;10.616;2022-10-30T13:28:24;96636.22;;;33.42;29.36
64228;BME280;50546;49.146;10.616;2022-10-30T13:31:01;96633.03;;;33.53;28.91
64228;BME280;50546;49.146;10.616;2022-10-30T13:36:51;96637.09;;;32.99;30.74
64228;BME280;50546;49.146;10.616;2022-10-30T13:39:39;96631.78;;;32.70;31.64
64228;BME280;50546;49.146;10.616;2022-10-30T13:42:29;96633.00;;;32.47;31.89
64228;BME280;50546;49.146;10.616;2022-10-30T13:45:17;96637.25;;;32.04;33.15
64228;BME280;50546;49.146;10.616;2022-10-30T13:47:55;96648.56;;;31.87;33.75
64228;BME280;50546;49.146;10.616;2022-10-30T13:53:26;96646.53;;;30.69;35.87
64228;BME280;50546;49.146;10.616;2022-10-30T13:55:54;96640.66;;;30.06;37.82
64228;BME280;50546;49.146;10.616;2022-10-30T13:58:39;96641.50;;;29.37;38.62
64228;BME280;50546;49.146;10.616;2022-10-30T14:01:18;96634.78;;;28.62;41.33
64228;BME280;50546;49.146;10.616;2022-10-30T14:06:39;96642.44;;;27.10;43.22
64228;BME280;50546;49.146;10.616;2022-10-30T14:11:53;96647.38;;;26.27;46.28
64228;BME280;50546;49.146;10.616;2022-10-30T14:14:30;96647.66;;;26.36;46.46
64228;BME280;50546;49.146;10.616;2022-10-30T14:17:16;96645.88;;;26.56;46.18
64228;BME280;50546;49.146;10.616;2022-10-30T14:22:29;96660.44;;;26.23;45.76
64228;BME280;50546;49.146;10.616;2022-10-30T14:24:54;96651.41;;;25.70;45.88
64228;BME280;50546;49.146;10.616;2022-10-30T14:27:25;96649.63;;;25.49;47.72
64228;BME280;50546;49.146;10.616;2022-10-30T14:29:52;96655.22;;;25.38;49.38